Station: Gayndah  

  Atmospheric Gas Attenuation - ITU Rec 676-11   ----------------- dB/100km -----------------
Date Time Temp RH % AH g/m3 Dew Point Wind Direction Speed kph Gust kph Barometer mB Rainfall Since 9am 24GHz 47GHz 76GHz 122GHz 134GHz 241GHz
07/09 01:30 15.9 57 7.72 7.4 6 9 1017.7 0 17.6 24.1 35.6 93.1 85.0 291.8
07/09 01:20 16.5 55 7.72 7.4 2 6 1017.5 0 17.6 23.9 35.3 92.4 84.3 289.5
07/09 01:10 17 51 7.38 6.8 2 4 1017.4 0 16.9 23.3 33.8 88.5 79.6 273.2
07/09 01:00 17.9 47 7.18 6.4 2 6 1017.3 0 16.4 22.8 32.7 85.5 76.4 261.7
07/09 00:50 17.3 49 7.22 6.5 2 6 1017.4 0 16.5 23.0 33.1 86.6 77.4 265.4
07/09 00:40 17.6 49 7.35 6.8 2 6 1017.3 0 16.8 23.1 33.5 87.5 78.7 269.8
07/09 00:30 18.2 45 6.99 6.1 0 6 1017.2 0 16.0 22.4 31.9 83.4 73.8 252.9
07/09 00:20 19.8 40 6.83 5.8 2 6 1017.2 0 15.6 21.8 30.7 80.3 70.5 241.5
07/09 00:10 22.7 32 6.46 5.2 6 7 1017.3 0 14.7 20.6 28.5 74.2 64.0 218.9
07/09 00:00 24 30 6.53 5.4 6 7 1017.3 0 14.8 20.4 28.3 73.7 63.8 218.2
06/09 23:50 24.4 30 6.68 5.7 7 13 1017.3 0 15.1 20.6 28.6 74.6 65.0 222.8
06/09 23:40 23.3 33 6.9 6.1 9 11 1017.2 0 15.6 21.1 29.7 77.6 68.3 234.1
06/09 23:30 23.9 32 6.92 6.2 9 11 1017.1 0 15.6 21.0 29.6 77.2 68.0 233.2
06/09 23:20 24.3 32 7.08 6.6 9 11 1017 0 15.9 21.1 29.9 78.2 69.4 238.1
06/09 23:10 22.9 35 7.15 6.6 7 11 1017 0 16.1 21.5 30.7 80.2 71.4 244.9
06/09 23:00 22.3 37 7.31 6.9 7 9 1017 0 16.5 21.9 31.4 82.2 73.7 253.0
06/09 22:50 22.9 37 7.56 7.4 0 4 1017 0 17.0 22.1 32.1 83.9 76.0 261.1
06/09 22:40 22.1 38 7.42 7.1 4 6 1017 0 16.7 22.1 31.9 83.4 75.2 258.0
06/09 22:30 23.9 35 7.57 7.5 7 11 1017 0 17.0 21.9 31.7 83.0 75.2 258.3
06/09 22:20 24.6 34 7.65 7.7 7 9 1017 0 17.1 21.8 31.7 83.0 75.4 259.2
06/09 22:10 24.4 35 7.79 8 6 13 1017 0 17.4 22.0 32.3 84.4 77.2 265.3
06/09 22:00 24.8 34 7.74 7.9 6 9 1016.9 0 17.3 21.9 31.9 83.6 76.2 262.0
06/09 21:50 24.9 35 8.01 8.4 7 13 1016.8 0 17.8 22.2 32.8 85.9 79.1 272.2
06/09 21:40 25 36 8.29 8.9 7 11 1016.7 0 18.4 22.6 33.7 88.3 82.1 282.9
06/09 21:30 26.1 35 8.57 9.5 4 9 1016.7 0 18.9 22.7 34.2 89.7 84.2 290.1
06/09 21:20 26.4 34 8.46 9.3 6 11 1016.5 0 18.7 22.5 33.7 88.4 82.6 284.7
06/09 21:10 27.3 30 7.85 8.2 7 19 1016.4 0 17.4 21.4 31.3 82.0 75.1 258.3
06/09 21:00 28.5 26 7.27 7.1 11 22 1016.3 0 16.2 20.4 29.0 75.9 67.9 233.2
06/09 20:50 28.8 26 7.39 7.4 20 30 1016.1 0 16.4 20.5 29.3 76.6 68.9 236.7
06/09 20:40 29.1 26 7.51 7.7 19 35 1015.9 0 16.6 20.6 29.6 77.3 69.9 240.2
06/09 20:30 29.4 25 7.34 7.3 22 32 1015.6 0 16.3 20.3 28.9 75.6 67.8 233.1
06/09 20:20 29.6 25 7.42 7.5 19 32 1015.5 0 16.4 20.3 29.1 76.1 68.5 235.4
06/09 20:10 29.7 25 7.46 7.6 20 32 1015.4 0 16.5 20.4 29.2 76.3 68.8 236.6
06/09 20:00 29.8 25 7.5 7.7 19 32 1015.2 0 16.6 20.4 29.3 76.6 69.1 237.7
06/09 19:50 29.3 25 7.3 7.2 15 22 1015.1 0 16.2 20.2 28.8 75.3 67.5 231.8
06/09 19:40 29.7 25 7.46 7.6 15 20 1014.9 0 16.5 20.3 29.2 76.3 68.8 236.5
06/09 19:30 29.9 24 7.24 7.2 17 24 1014.8 0 16.0 20.0 28.4 74.3 66.4 228.0
06/09 19:20 29.6 25 7.42 7.5 15 26 1014.6 0 16.4 20.3 29.1 76.0 68.4 235.2
06/09 19:10 29.1 25 7.22 7.1 11 19 1014.5 0 16.0 20.2 28.6 74.8 66.8 229.4
06/09 19:00 29.3 25 7.3 7.2 11 20 1014.3 0 16.2 20.2 28.8 75.3 67.4 231.7
06/09 18:50 28.9 25 7.14 6.9 9 19 1014.2 0 15.9 20.1 28.4 74.3 66.1 227.0
06/09 18:40 29.7 24 7.16 7 9 15 1014.1 0 15.9 19.9 28.2 73.7 65.7 225.5
06/09 18:30 30.3 24 7.4 7.5 9 13 1013.9 0 16.4 20.1 28.8 75.2 67.6 232.4
06/09 18:20 30.1 24 7.32 7.3 7 11 1013.8 0 16.2 20.0 28.6 74.7 67.0 230.1
06/09 18:10 30.3 24 7.4 7.5 7 11 1013.7 0 16.4 20.1 28.7 75.2 67.6 232.4
06/09 18:00 30.7 23 7.24 7.2 9 15 1013.6 0 16.0 19.8 28.1 73.5 65.7 225.6
06/09 17:50 30.5 24 7.48 7.7 7 11 1013.5 0 16.5 20.2 28.9 75.6 68.2 234.7
06/09 17:40 30.8 24 7.6 7.9 6 9 1013.4 0 16.7 20.2 29.2 76.3 69.2 238.1
06/09 17:30 31.2 23 7.44 7.6 6 6 1013.3 0 16.4 19.9 28.5 74.7 67.3 231.3
06/09 17:20 31.6 23 7.6 8 6 9 1013.1 0 16.7 20.1 28.9 75.6 68.5 235.8
06/09 17:10 32.3 22 7.55 7.9 9 15 1013 0 16.6 19.8 28.5 74.6 67.4 232.1
06/09 17:00 32.6 21 7.32 7.4 11 17 1012.9 0 16.1 19.5 27.7 72.4 64.9 223.2
06/09 16:50 32.9 21 7.44 7.7 9 15 1012.8 0 16.3 19.6 28.0 73.1 65.9 226.6
06/09 16:40 33.3 21 7.6 8 9 15 1012.8 0 16.7 19.7 28.3 74.1 67.1 231.0
06/09 16:30 33.9 21 7.84 8.5 9 15 1012.7 0 17.1 19.9 28.8 75.5 69.0 237.7
06/09 16:20 34 20 7.51 7.9 9 19 1012.6 0 16.4 19.4 27.8 72.7 65.7 226.0
06/09 16:10 34 21 7.88 8.6 6 9 1012.6 0 17.2 19.9 28.9 75.7 69.3 238.7
06/09 16:00 33.8 21 7.8 8.4 9 15 1012.6 0 17.0 19.8 28.7 75.2 68.7 236.5
06/09 15:50 34.4 21 8.05 8.9 7 15 1012.7 0 17.5 20.0 29.3 76.7 70.6 243.5
06/09 15:40 33.6 22 8.09 9 4 9 1012.8 0 17.6 20.2 29.7 77.7 71.7 247.2
06/09 15:30 34.4 21 8.05 8.9 6 13 1012.9 0 17.5 20.0 29.3 76.7 70.7 243.5
06/09 15:20 34.3 22 8.39 9.5 9 17 1012.9 0 18.2 20.5 30.3 79.5 74.1 255.7
06/09 15:10 34.1 22 8.3 9.4 11 17 1012.9 0 18.0 20.4 30.1 79.0 73.4 253.1
06/09 15:00 34.8 22 8.61 9.9 7 15 1012.9 0 18.6 20.6 30.8 80.8 75.9 261.9
06/09 14:50 34.1 23 8.68 10 11 19 1013 0 18.8 20.9 31.3 82.1 77.2 266.6
06/09 14:40 33.8 23 8.54 9.8 9 19 1013.2 0 18.5 20.8 31.0 81.2 76.1 262.6
06/09 14:30 33.7 23 8.5 9.7 7 13 1013.3 0 18.5 20.7 30.9 81.0 75.8 261.5
06/09 14:20 33.8 23 8.54 9.8 9 20 1013.4 0 18.5 20.8 31.0 81.3 76.1 262.6
06/09 14:10 33.2 24 8.64 9.9 13 20 1013.5 0 18.8 21.0 31.5 82.7 77.7 268.1
06/09 14:00 33.3 25 9.05 10.6 13 24 1013.7 0 19.6 21.5 32.8 86.0 81.8 282.6
06/09 13:50 33.5 25 9.14 10.8 11 20 1013.9 0 19.8 21.6 33.0 86.6 82.6 285.3
06/09 13:40 32.6 26 9.06 10.6 9 22 1014 0 19.7 21.7 33.1 86.8 82.6 285.4
06/09 13:30 32.7 26 9.11 10.7 9 20 1014.2 0 19.8 21.8 33.2 87.2 83.1 287.0
06/09 13:20 32.4 26 8.97 10.4 13 20 1014.5 0 19.5 21.7 32.9 86.3 81.9 282.9
06/09 13:10 31.8 27 9.02 10.5 13 20 1014.8 0 19.6 21.9 33.3 87.4 83.1 286.9
06/09 13:00 31.9 27 9.07 10.6 13 20 1015 0 19.7 21.9 33.4 87.7 83.5 288.4
06/09 12:50 32 27 9.12 10.7 13 19 1015.2 0 19.8 22.0 33.6 88.1 84.0 290.0
06/09 12:40 31.8 27 9.02 10.5 17 26 1015.5 0 19.6 21.9 33.3 87.5 83.1 287.1
06/09 12:30 31.5 26 8.55 9.7 15 30 1015.9 0 18.7 21.4 32.0 83.8 78.5 270.8
06/09 12:20 31.4 28 9.16 10.7 9 15 1016 0 19.9 22.2 34.0 89.1 85.1 293.8
06/09 12:10 30.7 29 9.13 10.6 9 15 1016.1 0 19.9 22.3 34.2 89.6 85.5 295.2
06/09 12:00 30.1 31 9.45 11.1 7 15 1016.4 0 20.6 22.9 35.5 93.1 89.6 309.6
06/09 11:50 29.1 35 10.11 12.1 4 9 1016.8 0 22.0 24.1 38.2 100.3 98.1 339.4
06/09 11:40 29.1 35 10.11 12.1 4 9 1016.9 0 22.0 24.1 38.2 100.3 98.2 339.4
06/09 11:30 28.5 36 10.06 12 4 7 1017.2 0 21.9 24.2 38.3 100.6 98.3 340.0
06/09 11:20 28.4 37 10.29 12.3 4 7 1017.3 0 22.4 24.5 39.2 102.9 101.1 349.7
06/09 11:10 27.1 39 10.09 12 6 9 1017.7 0 22.1 24.6 39.1 102.7 100.5 347.3
06/09 11:00 26.6 41 10.32 12.3 2 7 1017.9 0 22.6 25.1 40.2 105.6 103.8 359.0
06/09 10:50 26.3 43 10.65 12.7 2 6 1018.1 0 23.3 25.7 41.5 109.2 108.2 374.1
06/09 10:40 25.3 44 10.3 12.2 4 7 1018.3 0 22.6 25.4 40.8 107.1 105.3 364.1
06/09 10:30 25.3 45 10.53 12.5 6 9 1018.5 0 23.1 25.8 41.6 109.4 108.1 373.8
06/09 10:20 25 47 10.82 12.9 6 9 1018.6 0 23.7 26.3 42.8 112.7 112.1 387.6
06/09 10:10 24.4 48 10.68 12.7 6 11 1018.7 0 23.4 26.3 42.6 112.1 111.2 384.5
06/09 10:00 24.5 49 10.97 13.1 4 9 1018.7 0 24.0 26.7 43.7 114.9 114.6 396.6
06/09 09:50 24.2 49 10.78 12.8 2 7 1018.7 0 23.6 26.5 43.1 113.4 112.7 389.8
06/09 09:40 24.2 51 11.22 13.4 2 6 1018.7 0 24.6 27.2 44.8 117.9 118.2 409.0
06/09 09:30 23.7 51 10.91 13 2 6 1018.7 0 23.9 26.8 43.9 115.4 115.1 398.0
06/09 09:20 22.5 53 10.59 12.4 6 9 1018.9 0 23.3 26.7 43.3 113.9 112.8 389.9
06/09 09:10 22.7 51 10.3 12 4 7 1019 0 22.7 26.2 42.1 110.7 108.9 376.3
06/09 09:00 22.6 56 11.25 13.4 0 4 1019.1 0 24.7 27.7 45.8 120.6 121.1 418.8

Last Refresh: 07-Sep-2026 01:09:42

Bureau of Meteorology